Time;durP1;ratioP1;P1;durP2;ratioP2;P2;SDS_P1;SDS_P2;PMS_P1;PMS_P2;Temp;Humidity;BMP_temperature;BMP_pressure;BME280_temperature;BME280_humidity;BME280_pressure;Samples;Min_cycle;Max_cycle;Signal;HPM_P1;HPM_P2
2021/04/18 03:02:34;;;;;;;53.48;36.50;;;;;;;1.85;100.00;100620.02;1751196;80;21351;-65
2021/04/18 03:05:05;;;;;;;59.10;39.15;;;;;;;1.94;100.00;100618.52;1724652;81;21203;-67
2021/04/18 03:07:35;;;;;;;123.13;78.85;;;;;;;2.06;100.00;100628.32;1726022;81;21504;-65
2021/04/18 03:10:06;;;;;;;80.65;50.38;;;;;;;2.22;100.00;100626.66;1726813;81;21174;-77
2021/04/18 03:12:35;;;;;;;59.35;40.67;;;;;;;2.41;100.00;100626.37;1705929;82;22037;-66
2021/04/18 03:15:06;;;;;;;82.95;46.60;;;;;;;2.57;100.00;100631.11;1694226;82;21160;-67
2021/04/18 03:17:36;;;;;;;76.87;48.85;;;;;;;2.77;100.00;100632.11;1727705;81;21169;-69
2021/04/18 03:20:07;;;;;;;94.80;58.75;;;;;;;3.03;100.00;100636.45;1694712;82;21259;-66
2021/04/18 03:22:36;;;;;;;91.85;55.95;;;;;;;3.36;100.00;100642.33;1732669;81;21124;-67
2021/04/18 03:25:07;;;;;;;93.07;52.35;;;;;;;3.73;100.00;100636.70;1690866;82;21130;-66
2021/04/18 03:27:36;;;;;;;81.70;48.42;;;;;;;4.18;100.00;100635.02;1701051;82;20981;-77
2021/04/18 03:30:07;;;;;;;69.22;44.35;;;;;;;4.68;100.00;100640.11;1692961;83;21931;-68
2021/04/18 03:32:37;;;;;;;49.45;36.45;;;;;;;5.21;100.00;100634.50;1728084;81;21097;-67
2021/04/18 03:35:07;;;;;;;52.70;37.63;;;;;;;5.84;100.00;100632.95;1762229;80;21128;-67
2021/04/18 03:37:35;;;;;;;51.00;35.03;;;;;;;6.54;100.00;100631.95;1692463;82;21145;-77
2021/04/18 03:40:06;;;;;;;57.53;36.20;;;;;;;7.28;100.00;100638.55;1665320;82;21220;-68
2021/04/18 03:42:34;;;;;;;53.50;36.70;;;;;;;8.00;100.00;100636.50;1697562;81;21969;-67
2021/04/18 03:45:05;;;;;;;53.90;36.00;;;;;;;8.61;100.00;100622.06;1721002;81;22123;-77
2021/04/18 03:47:33;;;;;;;51.50;36.30;;;;;;;9.08;100.00;100613.59;1719390;81;21302;-67
2021/04/18 03:50:09;;;;;;;47.37;33.07;;;;;;;9.52;100.00;100613.20;1722911;81;21546;-68
2021/04/18 03:52:57;;;;;;;47.07;33.37;;;;;;;9.99;100.00;100610.06;1717368;83;21395;-69
2021/04/18 03:55:27;;;;;;;49.03;35.17;;;;;;;10.40;100.00;100603.35;1725210;81;22137;-75
2021/04/18 03:57:55;;;;;;;53.37;33.23;;;;;;;10.87;100.00;100600.22;1719040;81;21988;-68
2021/04/18 04:00:25;;;;;;;53.57;36.73;;;;;;;11.15;100.00;100604.38;1721795;81;21660;-67
2021/04/18 04:02:55;;;;;;;47.03;35.87;;;;;;;11.39;100.00;100604.62;1722561;80;21689;-66
2021/04/18 04:05:24;;;;;;;42.10;32.33;;;;;;;11.74;100.00;100596.54;1747866;80;21856;-77
2021/04/18 04:07:55;;;;;;;41.88;32.23;;;;;;;12.26;100.00;100586.91;1718781;80;21896;-68
2021/04/18 04:10:24;;;;;;;38.37;29.80;;;;;;;12.66;100.00;100592.02;1749424;80;21050;-67
2021/04/18 04:12:53;;;;;;;36.43;28.53;;;;;;;12.93;100.00;100590.93;1731547;81;21203;-68
2021/04/18 04:15:21;;;;;;;33.37;28.93;;;;;;;12.97;100.00;100589.55;1721906;81;21953;-76
2021/04/18 04:17:51;;;;;;;37.57;30.20;;;;;;;12.95;100.00;100589.72;1714822;82;21484;-67
2021/04/18 04:20:38;;;;;;;38.97;28.83;;;;;;;12.88;100.00;100588.89;1717849;82;21344;-71
2021/04/18 04:23:19;;;;;;;32.83;28.23;;;;;;;12.86;100.00;100587.75;1805312;78;22376;-63
2021/04/18 04:25:47;;;;;;;37.33;29.30;;;;;;;12.92;100.00;100587.51;1798532;79;21005;-63
2021/04/18 04:28:16;;;;;;;33.87;27.87;;;;;;;13.19;100.00;100590.31;1790911;78;21191;-62
2021/04/18 04:30:45;;;;;;;31.97;27.27;;;;;;;13.50;100.00;100594.64;1748957;80;21643;-64
2021/04/18 04:33:13;;;;;;;33.13;26.57;;;;;;;13.87;100.00;100591.28;1765538;80;21583;-63
2021/04/18 04:35:43;;;;;;;29.10;23.73;;;;;;;14.31;99.50;100594.70;1768568;80;21156;-63
2021/04/18 04:38:11;;;;;;;26.13;22.17;;;;;;;14.77;99.85;100599.25;1764168;80;21670;-63
2021/04/18 04:40:40;;;;;;;23.03;20.63;;;;;;;15.37;90.87;100593.10;1768158;80;22388;-63
2021/04/18 04:43:08;;;;;;;23.50;21.07;;;;;;;15.96;82.45;100592.91;1760805;80;20908;-63
2021/04/18 04:45:36;;;;;;;29.40;23.27;;;;;;;16.53;74.60;100587.20;1763868;80;21042;-63
2021/04/18 04:48:06;;;;;;;27.07;24.17;;;;;;;17.04;67.03;100584.05;1738796;80;21152;-64
2021/04/18 04:50:35;;;;;;;29.67;24.77;;;;;;;17.34;64.72;100583.35;1754502;80;21165;-64
2021/04/18 04:53:03;;;;;;;28.03;25.00;;;;;;;17.51;62.74;100590.47;1753036;80;21229;-63
2021/04/18 04:55:31;;;;;;;35.03;28.83;;;;;;;17.59;59.29;100585.41;1754843;80;21199;-63
2021/04/18 04:58:00;;;;;;;29.67;26.40;;;;;;;17.74;58.29;100584.51;1762778;80;21458;-62
2021/04/18 05:00:29;;;;;;;26.00;23.23;;;;;;;17.98;54.54;100580.16;1764396;80;20995;-62
2021/04/18 05:02:58;;;;;;;25.43;22.47;;;;;;;18.36;53.43;100576.89;1763928;80;21129;-62
2021/04/18 05:05:27;;;;;;;25.73;23.03;;;;;;;18.94;53.81;100567.75;1764426;80;22295;-64
2021/04/18 05:07:56;;;;;;;23.50;21.10;;;;;;;19.74;48.33;100566.77;1718592;80;21658;-63
2021/04/18 05:10:24;;;;;;;21.53;19.07;;;;;;;20.53;46.12;100567.63;1740479;81;21204;-63
2021/04/18 05:12:53;;;;;;;23.13;20.43;;;;;;;21.31;43.40;100561.02;1739039;81;21170;-64
2021/04/18 05:15:22;;;;;;;23.97;20.00;;;;;;;21.90;40.94;100557.20;1741334;81;21137;-64
2021/04/18 05:17:50;;;;;;;22.55;20.23;;;;;;;22.36;39.86;100554.98;1737601;81;21636;-64
2021/04/18 05:20:20;;;;;;;23.38;20.95;;;;;;;22.78;38.88;100555.53;1740688;81;20950;-64
2021/04/18 05:22:48;;;;;;;24.55;20.95;;;;;;;23.25;37.61;100559.52;1732453;81;21097;-64
2021/04/18 05:25:16;;;;;;;22.40;20.20;;;;;;;23.68;36.60;100555.45;1762295;80;21153;-65
2021/04/18 05:27:45;;;;;;;21.27;19.12;;;;;;;24.04;35.20;100557.09;1769848;80;21128;-64
2021/04/18 05:30:15;;;;;;;21.97;19.77;;;;;;;24.31;34.45;100552.58;1728355;81;22151;-63
2021/04/18 05:32:43;;;;;;;22.98;20.45;;;;;;;24.56;33.76;100551.80;1759460;80;21149;-64
2021/04/18 05:35:12;;;;;;;21.87;19.40;;;;;;;24.72;33.05;100548.03;1758256;80;21232;-63
2021/04/18 05:37:42;;;;;;;20.23;18.25;;;;;;;24.71;32.87;100550.44;1764180;80;28291;-64
2021/04/18 05:40:13;;;;;;;17.97;16.20;;;;;;;24.62;32.79;100550.70;1764083;80;21614;-64
2021/04/18 05:42:41;;;;;;;17.62;15.83;;;;;;;24.54;32.53;100552.05;1767895;80;22262;-64
2021/04/18 05:45:11;;;;;;;17.77;15.88;;;;;;;24.42;32.55;100546.20;1759751;80;21630;-65
2021/04/18 05:47:42;;;;;;;15.80;13.93;;;;;;;24.42;32.55;100546.20;1764700;80;21137;-63
2021/04/18 05:50:11;;;;;;;17.23;15.40;;;;;;;24.39;31.66;100550.73;1752522;80;21157;-63
2021/04/18 05:52:39;;;;;;;17.10;15.50;;;;;;;24.01;32.12;100549.63;1789628;78;22505;-62
2021/04/18 05:55:09;;;;;;;15.30;13.72;;;;;;;24.09;32.21;100551.50;1779776;78;21555;-63
2021/04/18 05:57:38;;;;;;;13.60;12.40;;;;;;;24.28;32.19;100549.91;1792555;78;20958;-64
2021/04/18 06:00:07;;;;;;;16.73;13.60;;;;;;;24.44;31.57;100542.22;1751184;80;21535;-63
2021/04/18 06:02:48;;;;;;;14.27;12.77;;;;;;;24.67;31.51;100548.05;1856936;76;22803;-66
2021/04/18 06:05:19;;;;;;;16.00;14.50;;;;;;;24.88;31.27;100557.58;1826223;78;21172;-64
2021/04/18 06:07:48;;;;;;;12.78;11.55;;;;;;;24.96;30.86;100551.72;1829185;78;21314;-64
2021/04/18 06:10:17;;;;;;;14.70;13.20;;;;;;;24.88;30.21;100548.25;1820281;78;21001;-63
2021/04/18 06:12:45;;;;;;;14.87;13.30;;;;;;;24.60;30.65;100559.52;1826471;78;21644;-63
2021/04/18 06:15:15;;;;;;;13.20;11.33;;;;;;;24.52;30.57;100559.53;1827017;77;21623;-64
2021/04/18 06:17:43;;;;;;;12.90;11.45;;;;;;;24.46;30.59;100565.38;1831108;78;22261;-64
2021/04/18 06:20:12;;;;;;;15.28;13.15;;;;;;;24.52;30.61;100564.86;1821123;78;21229;-67
2021/04/18 06:22:41;;;;;;;11.50;10.30;;;;;;;24.65;30.31;100561.63;1825151;78;21087;-66
2021/04/18 06:25:12;;;;;;;11.40;10.18;;;;;;;24.60;29.95;100562.19;1833665;78;21190;-64
2021/04/18 06:27:40;;;;;;;13.70;11.08;;;;;;;24.31;30.15;100556.03;1829352;78;21194;-66
2021/04/18 06:30:10;;;;;;;11.38;8.35;;;;;;;24.22;30.50;100553.66;1831399;78;21162;-66
2021/04/18 06:32:38;;;;;;;12.28;10.65;;;;;;;24.42;30.05;100553.66;1828474;78;22243;-66
2021/04/18 06:35:08;;;;;;;14.75;12.25;;;;;;;24.56;30.09;100554.47;1825569;78;21047;-64
2021/04/18 06:37:37;;;;;;;14.58;11.18;;;;;;;24.92;30.15;100549.30;1821744;78;21612;-63
2021/04/18 06:40:07;;;;;;;11.48;9.15;;;;;;;25.23;29.00;100549.25;1837048;78;21119;-64
2021/04/18 06:42:38;;;;;;;11.22;9.50;;;;;;;25.17;28.95;100554.33;1818442;77;21212;-63
2021/04/18 06:45:09;;;;;;;8.80;7.67;;;;;;;25.10;28.11;100547.16;1833962;78;21359;-63
2021/04/18 06:47:38;;;;;;;12.60;10.78;;;;;;;24.87;27.77;100550.66;1820292;78;21652;-63
2021/04/18 06:50:09;;;;;;;11.12;9.58;;;;;;;24.36;28.30;100556.05;1834408;78;21214;-65
2021/04/18 06:52:37;;;;;;;9.10;6.80;;;;;;;23.78;29.19;100548.80;1828269;77;21544;-64
2021/04/18 06:55:09;;;;;;;8.50;5.95;;;;;;;23.86;28.46;100549.61;1824749;78;21293;-64
2021/04/18 06:57:37;;;;;;;8.83;5.30;;;;;;;24.30;28.13;100546.45;1822277;78;22382;-64
2021/04/18 07:00:08;;;;;;;9.63;7.95;;;;;;;24.76;27.11;100546.42;1828296;78;21125;-64
2021/04/18 07:02:36;;;;;;;7.67;5.85;;;;;;;25.18;26.82;100539.38;1827907;78;21070;-63
2021/04/18 07:05:12;;;;;;;9.35;6.70;;;;;;;25.52;26.81;100535.22;1824501;78;21556;-65
2021/04/18 07:07:43;;;;;;;6.15;5.22;;;;;;;25.94;26.25;100537.38;1817835;77;21248;-63
2021/04/18 07:10:30;;;;;;;10.23;7.55;;;;;;;26.33;25.29;100536.52;1822924;78;21350;-63
2021/04/18 07:13:09;;;;;;;8.83;7.15;;;;;;;26.56;25.42;100531.02;1821307;78;21157;-65
2021/04/18 07:15:47;;;;;;;5.83;4.90;;;;;;;26.74;25.13;100526.80;1817184;78;21207;-63
2021/04/18 07:18:41;;;;;;;5.28;3.80;;;;;;;26.68;24.46;100526.06;1815987;78;21027;-66
2021/04/18 07:21:09;;;;;;;8.60;6.47;;;;;;;26.83;24.49;100528.57;1821022;78;21786;-63
2021/04/18 07:23:38;;;;;;;8.33;6.25;;;;;;;27.19;23.85;100528.16;1804159;78;21359;-64
2021/04/18 07:26:26;;;;;;;14.07;7.58;;;;;;;27.21;24.15;100521.20;1820175;78;21114;-65
2021/04/18 07:29:17;;;;;;;11.08;7.58;;;;;;;27.40;24.07;100523.34;1818629;78;21178;-62
2021/04/18 07:31:46;;;;;;;7.92;6.17;;;;;;;27.54;23.48;100528.25;1812307;78;21217;-63
2021/04/18 07:34:21;;;;;;;9.00;5.50;;;;;;;27.63;23.56;100523.81;1815358;78;21165;-65
2021/04/18 07:37:05;;;;;;;8.03;5.25;;;;;;;27.79;22.97;100520.94;1808124;78;22282;-63
2021/04/18 07:39:47;;;;;;;9.98;4.97;;;;;;;27.72;22.36;100519.13;1818889;78;21205;-65
2021/04/18 07:42:35;;;;;;;7.50;5.00;;;;;;;27.43;22.38;100512.06;1815759;78;20971;-63
2021/04/18 07:45:16;;;;;;;4.40;3.67;;;;;;;27.18;22.76;100505.71;1814270;78;21619;-66
2021/04/18 07:47:45;;;;;;;6.08;3.83;;;;;;;27.24;22.53;100507.22;1817937;78;20921;-63
2021/04/18 07:50:17;;;;;;;5.47;3.33;;;;;;;27.27;22.25;100501.30;1814400;78;21631;-67
2021/04/18 07:52:48;;;;;;;5.55;3.65;;;;;;;27.41;22.02;100498.16;1822940;78;21990;-64
2021/04/18 07:55:17;;;;;;;5.28;4.08;;;;;;;27.54;21.59;100492.61;1823158;78;21165;-63
2021/04/18 07:57:45;;;;;;;4.75;3.83;;;;;;;27.39;21.08;100493.11;1817734;77;21213;-63
2021/04/18 08:00:14;;;;;;;4.33;3.10;;;;;;;26.77;21.71;100496.27;1819625;78;21054;-65
2021/04/18 08:02:51;;;;;;;5.75;2.62;;;;;;;26.33;20.76;100491.08;1811421;77;21704;-63
2021/04/18 08:05:23;;;;;;;4.15;2.72;;;;;;;25.84;20.77;100492.86;1831405;78;21605;-62
2021/04/18 08:08:06;;;;;;;5.42;3.40;;;;;;;25.29;21.14;100493.44;1806613;78;21182;-63
2021/04/18 08:10:46;;;;;;;7.47;4.90;;;;;;;24.64;21.97;100496.61;1832591;78;21170;-65
2021/04/18 08:13:20;;;;;;;8.18;6.22;;;;;;;23.86;22.71;100499.56;1832067;77;21067;-64
2021/04/18 08:16:04;;;;;;;8.67;5.30;;;;;;;23.36;24.39;100497.84;1831072;78;21189;-66
2021/04/18 08:18:43;;;;;;;7.23;4.83;;;;;;;23.14;25.25;100497.24;1831337;77;21943;-65
2021/04/18 08:21:36;;;;;;;6.47;5.20;;;;;;;23.08;24.82;100489.79;1826781;78;20972;-64
2021/04/18 08:24:21;;;;;;;7.10;5.53;;;;;;;23.24;25.35;100483.98;1833736;78;21123;-63
2021/04/18 08:27:08;;;;;;;7.77;5.20;;;;;;;23.24;25.35;100483.98;1829782;78;21534;-65
2021/04/18 08:29:57;;;;;;;7.73;4.80;;;;;;;23.79;25.67;100475.35;1821087;78;21280;-65
2021/04/18 08:32:41;;;;;;;6.33;4.60;;;;;;;24.10;24.46;100479.34;1808399;78;21123;-66
2021/04/18 08:35:18;;;;;;;4.90;4.03;;;;;;;23.37;24.63;100482.15;1812009;78;21583;-65
2021/04/18 08:38:15;;;;;;;7.03;4.00;;;;;;;22.47;25.37;100482.28;1827431;78;21525;-65
2021/04/18 08:40:45;;;;;;;14.40;5.70;;;;;;;21.83;26.20;100478.31;1821463;78;21500;-64
2021/04/18 08:43:24;;;;;;;6.13;4.73;;;;;;;21.35;27.05;100481.28;1827050;77;21433;-65
2021/04/18 08:45:55;;;;;;;5.17;4.40;;;;;;;20.90;28.08;100479.12;1796995;78;21233;-64
2021/04/18 08:48:23;;;;;;;6.60;4.65;;;;;;;20.70;29.31;100474.89;1834201;78;21242;-63
2021/04/18 08:50:58;;;;;;;5.47;3.63;;;;;;;20.34;29.54;100474.87;1827193;78;21152;-63
2021/04/18 08:53:26;;;;;;;7.10;3.20;;;;;;;19.97;29.34;100474.58;1828852;77;21162;-64
2021/04/18 08:56:02;;;;;;;4.28;3.10;;;;;;;19.76;29.88;100473.41;1819588;78;21182;-64
2021/04/18 08:58:33;;;;;;;4.70;3.07;;;;;;;20.29;29.36;100458.92;1818523;78;21267;-64
2021/04/18 09:01:06;;;;;;;4.37;3.20;;;;;;;20.96;29.42;100445.55;1825276;78;21172;-64
2021/04/18 09:03:35;;;;;;;3.20;1.93;;;;;;;21.89;27.52;100449.41;1826680;77;20929;-65
2021/04/18 09:06:14;;;;;;;4.22;2.80;;;;;;;22.70;26.11;100443.08;1833300;77;21107;-65
2021/04/18 09:08:53;;;;;;;2.97;2.00;;;;;;;23.31;25.44;100444.11;1828842;78;22266;-64
2021/04/18 09:11:21;;;;;;;3.67;1.80;;;;;;;23.74;23.37;100436.73;1828274;77;21012;-65
2021/04/18 09:13:59;;;;;;;6.13;3.53;;;;;;;23.88;23.34;100435.68;1827349;78;21589;-65
2021/04/18 09:16:29;;;;;;;6.13;3.93;;;;;;;23.78;23.00;100436.47;1823802;78;21109;-64
2021/04/18 09:19:30;;;;;;;3.42;2.17;;;;;;;23.40;23.01;100437.73;1822878;78;21079;-66
2021/04/18 09:22:09;;;;;;;2.93;2.00;;;;;;;23.25;23.95;100441.70;1826444;78;21362;-65
2021/04/18 09:24:56;;;;;;;3.20;1.97;;;;;;;23.37;23.91;100430.81;1829427;77;21933;-66
2021/04/18 09:27:27;;;;;;;5.03;2.23;;;;;;;23.72;23.54;100425.57;1831761;77;21880;-65
2021/04/18 09:30:02;;;;;;;3.47;2.17;;;;;;;24.29;23.24;100420.98;1797550;78;21589;-64
2021/04/18 09:32:40;;;;;;;5.43;2.70;;;;;;;24.50;22.47;100423.87;1826046;78;21194;-64
2021/04/18 09:35:09;;;;;;;4.30;2.47;;;;;;;23.98;22.61;100430.36;1829107;76;21144;-65
2021/04/18 09:37:42;;;;;;;3.73;2.33;;;;;;;23.30;23.24;100433.75;1827077;78;21045;-65
2021/04/18 09:40:13;;;;;;;3.33;2.47;;;;;;;22.79;23.71;100427.70;1830512;78;21573;-65
2021/04/18 09:42:48;;;;;;;3.03;1.80;;;;;;;22.42;24.35;100421.13;1799216;78;21230;-65
2021/04/18 09:45:19;;;;;;;3.13;2.10;;;;;;;22.22;24.52;100410.41;1832840;77;21048;-64
2021/04/18 09:47:51;;;;;;;4.00;1.90;;;;;;;22.07;24.79;100411.87;1822209;78;21141;-66
2021/04/18 09:50:30;;;;;;;4.47;2.08;;;;;;;22.00;24.95;100416.59;1828616;78;21074;-66
2021/04/18 09:53:22;;;;;;;4.00;2.13;;;;;;;21.92;24.85;100418.92;1833924;78;21121;-65
2021/04/18 09:55:53;;;;;;;5.97;2.50;;;;;;;21.61;24.92;100420.80;1832934;78;21089;-64
2021/04/18 09:58:28;;;;;;;3.50;2.27;;;;;;;21.06;25.23;100423.66;1826380;78;21131;-63
2021/04/18 10:00:56;;;;;;;6.27;2.93;;;;;;;20.61;25.72;100420.22;1831538;77;21126;-62
2021/04/18 10:03:41;;;;;;;3.67;2.20;;;;;;;20.48;26.60;100420.53;1823950;78;21143;-63
2021/04/18 10:06:13;;;;;;;3.53;2.30;;;;;;;20.49;26.42;100414.22;1776687;80;21131;-62
2021/04/18 10:08:41;;;;;;;4.47;2.53;;;;;;;20.43;26.43;100421.00;1764532;80;21674;-63
2021/04/18 10:11:17;;;;;;;5.33;2.43;;;;;;;20.24;26.65;100418.62;1737466;80;21578;-62
2021/04/18 10:13:56;;;;;;;3.00;2.20;;;;;;;20.07;27.14;100421.80;1767395;80;21221;-62
2021/04/18 10:16:38;;;;;;;4.45;3.47;;;;;;;19.87;27.29;100415.67;1754463;80;21211;-63
2021/04/18 10:19:18;;;;;;;5.93;3.30;;;;;;;19.64;27.68;100422.70;1762301;80;21610;-62
2021/04/18 10:22:08;;;;;;;4.53;3.05;;;;;;;19.50;28.17;100424.00;1761380;80;21253;-61
2021/04/18 10:24:48;;;;;;;5.37;3.33;;;;;;;19.45;28.06;100423.92;1758853;80;21645;-61
2021/04/18 10:27:21;;;;;;;5.70;3.20;;;;;;;19.47;28.36;100415.22;1758029;80;21140;-61
2021/04/18 10:29:50;;;;;;;4.47;3.30;;;;;;;19.67;28.45;100418.27;1766245;80;20988;-62
2021/04/18 10:32:19;;;;;;;4.83;3.30;;;;;;;19.91;28.37;100410.17;1759785;80;21222;-62
2021/04/18 10:34:49;;;;;;;4.90;3.00;;;;;;;20.14;28.49;100412.64;1770912;79;21064;-61
2021/04/18 10:37:18;;;;;;;4.50;2.90;;;;;;;20.44;27.90;100410.68;1759609;79;21100;-62
2021/04/18 10:39:48;;;;;;;6.00;3.83;;;;;;;20.60;27.50;100406.68;1764840;80;21198;-63
2021/04/18 10:42:16;;;;;;;5.53;3.10;;;;;;;20.73;27.39;100407.39;1761739;80;22522;-63
2021/04/18 10:44:45;;;;;;;4.90;3.47;;;;;;;20.78;27.52;100404.27;1771091;80;21513;-62
2021/04/18 10:47:18;;;;;;;4.80;3.47;;;;;;;20.60;27.54;100404.03;1777962;80;21598;-61
2021/04/18 10:49:49;;;;;;;6.17;3.60;;;;;;;20.31;27.92;100407.88;1766382;80;21195;-63
2021/04/18 10:52:17;;;;;;;4.70;3.07;;;;;;;20.04;28.16;100411.69;1776919;80;21377;-61
2021/04/18 10:54:45;;;;;;;6.80;3.93;;;;;;;19.90;28.61;100405.94;1769171;80;21096;-62
2021/04/18 10:57:15;;;;;;;5.70;3.90;;;;;;;19.94;28.43;100401.77;1766186;80;20977;-61
2021/04/18 10:59:44;;;;;;;8.60;4.37;;;;;;;19.99;28.86;100396.54;1766402;80;21081;-64
2021/04/18 11:02:13;;;;;;;5.00;4.00;;;;;;;20.25;28.89;100399.04;1769632;80;21244;-62
2021/04/18 11:04:42;;;;;;;7.13;4.27;;;;;;;20.54;28.15;100393.12;1768726;80;21595;-62
2021/04/18 11:07:10;;;;;;;5.70;3.30;;;;;;;20.68;27.71;100390.09;1761453;80;21135;-62
2021/04/18 11:09:38;;;;;;;9.23;3.70;;;;;;;20.76;27.33;100392.30;1772947;80;21132;-66
2021/04/18 11:12:19;;;;;;;6.00;3.83;;;;;;;20.61;27.65;100397.71;1777623;80;21159;-63
2021/04/18 11:14:48;;;;;;;4.73;3.17;;;;;;;20.59;27.82;100393.17;1769632;80;21179;-63
2021/04/18 11:17:17;;;;;;;5.13;3.23;;;;;;;20.77;28.03;100392.59;1753945;81;22062;-62
2021/04/18 11:19:46;;;;;;;5.93;3.90;;;;;;;21.04;27.82;100387.34;1755623;81;21108;-65
2021/04/18 11:22:16;;;;;;;6.43;3.80;;;;;;;21.31;27.52;100380.71;1748496;81;21236;-62
2021/04/18 11:24:45;;;;;;;5.90;3.57;;;;;;;21.41;26.89;100379.52;1773843;80;21164;-63
2021/04/18 11:27:14;;;;;;;7.73;4.53;;;;;;;21.35;27.30;100385.81;1753079;80;21769;-62
2021/04/18 11:29:44;;;;;;;4.83;3.20;;;;;;;21.41;27.18;100380.05;1750573;81;21207;-66
2021/04/18 11:32:12;;;;;;;6.47;4.07;;;;;;;21.58;26.73;100378.06;1776146;80;21398;-63
2021/04/18 11:34:41;;;;;;;5.13;3.93;;;;;;;21.75;26.55;100373.97;1747290;81;21170;-63
2021/04/18 11:37:10;;;;;;;5.33;3.83;;;;;;;21.47;26.16;100370.54;1746829;81;21131;-64
2021/04/18 11:39:39;;;;;;;5.30;4.00;;;;;;;21.13;27.05;100368.07;1758332;80;21212;-64
2021/04/18 11:42:08;;;;;;;5.53;4.17;;;;;;;21.10;27.06;100365.94;1760828;80;22487;-61
2021/04/18 11:44:37;;;;;;;9.07;6.67;;;;;;;20.97;26.75;100366.32;1756679;80;21139;-62
2021/04/18 11:47:05;;;;;;;11.57;8.63;;;;;;;20.94;27.18;100360.72;1752086;80;21581;-62
2021/04/18 11:49:35;;;;;;;43.03;39.13;;;;;;;20.80;27.45;100362.44;1758948;80;21076;-63
2021/04/18 11:52:04;;;;;;;7.03;5.47;;;;;;;20.70;27.61;100362.84;1755567;80;21450;-63
2021/04/18 11:54:33;;;;;;;6.50;4.30;;;;;;;20.69;27.94;100363.90;1752450;80;22204;-62
2021/04/18 11:57:03;;;;;;;7.73;3.90;;;;;;;20.74;27.78;100352.83;1758412;80;21261;-62
2021/04/18 11:59:31;;;;;;;5.83;4.10;;;;;;;20.83;28.05;100354.50;1754611;80;21164;-62
2021/04/18 12:01:59;;;;;;;11.33;10.37;;;;;;;20.88;27.39;100358.02;1762956;80;21607;-62
2021/04/18 12:04:28;;;;;;;25.27;23.37;;;;;;;20.88;27.33;100353.25;1744206;80;21183;-62
2021/04/18 12:06:57;;;;;;;12.07;10.97;;;;;;;20.79;27.04;100354.72;1746915;81;21371;-61
2021/04/18 12:09:27;;;;;;;5.93;5.33;;;;;;;20.54;27.14;100349.95;1742413;81;21097;-65
2021/04/18 12:11:56;;;;;;;8.77;6.90;;;;;;;20.30;27.60;100348.01;1747193;81;21609;-62
2021/04/18 12:14:25;;;;;;;4.70;3.33;;;;;;;20.18;27.66;100345.47;1746512;81;21197;-61
2021/04/18 12:16:54;;;;;;;222.60;203.17;;;;;;;20.06;27.51;100340.81;1757170;81;21110;-61
2021/04/18 12:19:23;;;;;;;14.93;13.57;;;;;;;19.80;27.85;100339.63;1749323;81;22151;-62
2021/04/18 12:21:51;;;;;;;14.93;13.53;;;;;;;19.66;27.84;100339.98;1745419;81;21626;-63
2021/04/18 12:24:19;;;;;;;7.57;4.53;;;;;;;19.48;28.17;100330.12;1746553;80;21169;-62
2021/04/18 12:26:47;;;;;;;5.47;3.50;;;;;;;19.33;28.24;100324.06;1751337;81;21123;-63
2021/04/18 12:29:16;;;;;;;4.93;3.70;;;;;;;19.23;28.55;100325.20;1745604;81;21100;-63
2021/04/18 12:31:44;;;;;;;10.10;8.10;;;;;;;19.19;28.70;100320.91;1746422;81;21230;-63
2021/04/18 12:34:12;;;;;;;6.57;4.60;;;;;;;19.17;28.92;100323.80;1753657;81;21158;-63
2021/04/18 12:36:40;;;;;;;6.10;4.43;;;;;;;19.23;28.80;100323.88;1760659;81;20968;-62
2021/04/18 12:39:09;;;;;;;6.37;4.30;;;;;;;19.12;28.87;100328.19;1753448;81;21168;-63
2021/04/18 12:41:38;;;;;;;8.30;7.50;;;;;;;18.91;29.13;100323.06;1768877;80;21056;-62
2021/04/18 12:44:07;;;;;;;15.10;13.60;;;;;;;18.89;29.58;100321.17;1764977;79;21233;-62
2021/04/18 12:46:35;;;;;;;8.20;6.93;;;;;;;19.06;29.58;100319.38;1749501;79;21123;-63
2021/04/18 12:49:04;;;;;;;7.67;5.30;;;;;;;19.25;29.70;100313.89;1761533;79;21167;-62
2021/04/18 12:51:33;;;;;;;7.50;6.67;;;;;;;19.34;29.63;100308.48;1750696;81;22276;-61
2021/04/18 12:54:07;;;;;;;7.37;5.50;;;;;;;19.32;29.92;100310.05;1762149;80;21201;-63
2021/04/18 12:56:42;;;;;;;9.83;6.43;;;;;;;19.23;29.61;100304.86;1767034;80;21004;-64
2021/04/18 12:59:10;;;;;;;8.70;5.10;;;;;;;19.00;29.91;100305.79;1749737;80;21156;-64
2021/04/18 13:01:40;;;;;;;13.57;5.40;;;;;;;18.88;30.23;100312.45;1755590;79;21164;-63
2021/04/18 13:04:08;;;;;;;8.00;5.20;;;;;;;18.81;30.13;100307.02;1766307;80;21234;-63
2021/04/18 13:06:38;;;;;;;6.93;5.07;;;;;;;18.82;29.98;100303.34;1769594;78;21487;-65
2021/04/18 13:09:07;;;;;;;8.23;5.27;;;;;;;18.71;30.22;100299.20;1766709;80;21241;-63
2021/04/18 13:11:36;;;;;;;9.60;6.10;;;;;;;18.57;30.46;100297.84;1766792;80;21546;-63
2021/04/18 13:14:05;;;;;;;12.03;8.60;;;;;;;18.50;30.91;100303.77;1777406;80;21652;-63
2021/04/18 13:16:35;;;;;;;6.83;5.58;;;;;;;18.40;31.26;100300.92;1767084;80;21009;-62
2021/04/18 13:19:03;;;;;;;22.50;16.47;;;;;;;18.45;31.60;100299.72;1772472;80;21166;-63
2021/04/18 13:21:31;;;;;;;10.07;6.20;;;;;;;18.56;30.95;100297.56;1751325;81;21205;-64
2021/04/18 13:24:03;;;;;;;21.33;15.23;;;;;;;18.62;30.97;100301.09;1745609;81;21670;-63
2021/04/18 13:26:32;;;;;;;22.07;17.95;;;;;;;18.58;31.31;100296.80;1760420;80;21105;-63
2021/04/18 13:29:00;;;;;;;77.17;62.80;;;;;;;18.57;31.25;100300.48;1762729;80;21662;-63
2021/04/18 13:31:29;;;;;;;8.07;6.03;;;;;;;18.51;31.23;100304.05;1761076;80;21647;-63
2021/04/18 13:33:58;;;;;;;5.53;4.27;;;;;;;18.39;31.49;100298.00;1779732;80;21201;-63
2021/04/18 13:36:26;;;;;;;10.37;7.60;;;;;;;18.13;31.98;100305.37;1776997;80;21170;-64
2021/04/18 13:38:55;;;;;;;7.60;5.83;;;;;;;17.82;32.47;100309.70;1769006;80;21271;-62
2021/04/18 13:41:23;;;;;;;6.13;4.63;;;;;;;17.64;32.77;100307.94;1783977;80;21108;-62
2021/04/18 13:43:55;;;;;;;8.67;4.87;;;;;;;17.60;33.05;100303.64;1777083;80;21243;-62
2021/04/18 13:46:23;;;;;;;6.70;4.53;;;;;;;17.44;33.41;100305.63;1778248;80;22694;-62
2021/04/18 13:48:52;;;;;;;6.23;4.77;;;;;;;17.23;33.80;100291.94;1767735;80;21190;-62
2021/04/18 13:51:21;;;;;;;7.53;5.30;;;;;;;17.11;33.83;100298.22;1779136;80;21151;-63
2021/04/18 13:53:50;;;;;;;7.03;5.37;;;;;;;17.02;34.13;100293.79;1779637;80;22096;-63
2021/04/18 13:56:19;;;;;;;22.37;15.37;;;;;;;17.02;34.22;100294.59;1769960;80;21151;-62
2021/04/18 13:58:51;;;;;;;7.10;5.40;;;;;;;17.04;34.16;100294.36;1773280;80;21382;-62
2021/04/18 14:01:19;;;;;;;8.35;5.70;;;;;;;17.00;34.31;100291.88;1771639;80;21589;-63
2021/04/18 14:03:50;;;;;;;7.80;5.60;;;;;;;16.95;34.60;100291.77;1775947;79;21140;-61
2021/04/18 14:06:19;;;;;;;8.10;5.45;;;;;;;16.90;34.78;100292.44;1763680;80;22203;-62
2021/04/18 14:08:48;;;;;;;10.80;6.17;;;;;;;16.80;34.85;100286.09;1763567;79;21122;-63
2021/04/18 14:11:16;;;;;;;8.63;5.60;;;;;;;16.69;35.44;100288.42;1772967;80;22248;-63
2021/04/18 14:13:45;;;;;;;14.00;12.07;;;;;;;16.59;35.36;100286.02;1764592;80;21234;-63
2021/04/18 14:16:14;;;;;;;195.60;178.00;;;;;;;16.45;35.94;100282.77;1781768;79;21195;-61
2021/04/18 14:18:43;;;;;;;24.83;22.57;;;;;;;16.41;36.03;100282.91;1763456;80;21155;-61
2021/04/18 14:21:11;;;;;;;20.67;11.40;;;;;;;16.46;36.00;100286.99;1770328;80;21593;-62
2021/04/18 14:23:39;;;;;;;11.07;6.97;;;;;;;16.45;35.87;100276.98;1762172;80;22141;-63
2021/04/18 14:26:08;;;;;;;7.00;5.60;;;;;;;16.45;35.84;100278.30;1770840;80;22206;-62
2021/04/18 14:28:36;;;;;;;8.07;4.90;;;;;;;16.39;35.78;100284.95;1770688;79;20973;-62
2021/04/18 14:31:05;;;;;;;7.03;6.00;;;;;;;16.27;36.08;100288.31;1775514;80;21106;-63
2021/04/18 14:33:34;;;;;;;6.90;5.50;;;;;;;16.23;36.26;100279.25;1766470;80;21210;-67
2021/04/18 14:36:05;;;;;;;7.03;5.33;;;;;;;16.20;36.60;100280.20;1770837;80;22559;-63
2021/04/18 14:38:33;;;;;;;7.40;5.40;;;;;;;16.16;36.46;100279.83;1760459;80;21139;-63
2021/04/18 14:41:02;;;;;;;6.80;4.77;;;;;;;16.09;36.44;100277.78;1754319;81;21201;-63